Enter the Airport ICAO Code

Search by Airport or City

Current Weather

KSFB | Orlando Sanford International Airport

Orlando, Florida, United States

Last Update 32 Minutes Ago

Clear Sky at Low Altitude

Temperature of 26 ºC

Light Winds from South

Temperature

26 ºC

Dew Point Temperature

23 ºC

Relative Humidity

83.66 %

Wind Direction

South (170º, Without Significant Variations)

Wind Velocity

6 km/h (03 kt)

Gusts

None

Visibility

Greater than 10 Miles

Sea Level Pressure

30.08 inHg (Inches of Mercury)

Layers of Clouds

None

METAR KSFB 191053Z AUTO 17003KT 10SM CLR 26/23 A3008 RMK AO2 SLP186 T02560228

Weather Forecast

KSFB | Orlando Sanford International Airport

Orlando, Florida, United States

Forecast valid for the next 19 Hours

From now on it is expected:

Mostly Cloudy Sky

Light Winds from East

In 3 hours it is expected the begining of:

Light to Moderate Winds from South

In 9 hours it is expected the begining of:

Rain Shower

Moderate Winds from SouthEast

In 13 hours it is expected the begining of:

Mostly Cloudy Sky

Light to Moderate Winds from SouthEast

Maximum Temperature

No Data

Minimum Temperature

No Data

TAF KSFB 190520Z 1906/2006 11004KT P6SM BKN150 BKN250 FM191400 16007KT P6SM FEW050 BKN150 BKN250 FM192000 13010KT P6SM VCSH SCT050 BKN150 BKN250 FM200000 15005KT P6SM FEW045 BKN150 BKN250